Time;durP1;ratioP1;P1;durP2;ratioP2;P2;SDS_P1;SDS_P2;PMS_P1;PMS_P2;Temp;Humidity;BMP_temperature;BMP_pressure;BME280_temperature;BME280_humidity;BME280_pressure;Samples;Min_cycle;Max_cycle;Signal;HPM_P1;HPM_P2
2021/06/13 00:00:06;;;;;;;6.15;4.30;;;;;;;;;;4933733;29;20031;-68
2021/06/13 00:02:32;;;;;;;6.05;4.43;;;;;;;;;;4933670;29;20044;-67
2021/06/13 00:04:58;;;;;;;8.13;4.65;;;;;;;;;;4916511;29;20039;-67
2021/06/13 00:07:24;;;;;;;7.20;4.63;;;;;;;;;;4933827;29;20043;-67
2021/06/13 00:09:50;;;;;;;8.60;4.68;;;;;;;;;;4933927;29;20036;-67
2021/06/13 00:12:16;;;;;;;7.50;4.70;;;;;;;;;;4933982;29;20031;-69
2021/06/13 00:14:42;;;;;;;7.45;4.60;;;;;;;;;;4916691;29;20032;-66
2021/06/13 00:17:09;;;;;;;8.55;4.65;;;;;;;;;;4933896;29;20036;-66
2021/06/13 00:19:35;;;;;;;6.10;4.43;;;;;;;;;;4933878;29;20027;-67
2021/06/13 00:22:01;;;;;;;6.10;4.10;;;;;;;;;;4933553;29;20492;-68
2021/06/13 00:24:27;;;;;;;5.57;4.40;;;;;;;;;;4933973;29;20031;-66
2021/06/13 00:26:53;;;;;;;4.85;4.22;;;;;;;;;;4933811;29;20031;-68
2021/06/13 00:29:19;;;;;;;5.72;4.15;;;;;;;;;;4933684;29;20062;-67
2021/06/13 00:31:45;;;;;;;5.18;4.28;;;;;;;;;;4933603;29;20059;-71
2021/06/13 00:34:11;;;;;;;6.28;4.00;;;;;;;;;;4933569;29;20099;-68
2021/06/13 00:36:37;;;;;;;6.25;4.38;;;;;;;;;;4933976;29;20032;-67
2021/06/13 00:39:03;;;;;;;7.15;4.68;;;;;;;;;;4933868;29;20075;-67
2021/06/13 00:41:29;;;;;;;7.82;4.40;;;;;;;;;;4933919;29;20027;-67
2021/06/13 00:43:57;;;;;;;6.72;4.05;;;;;;;;;;4933508;29;20040;-67
2021/06/13 00:46:23;;;;;;;5.65;4.53;;;;;;;;;;4933725;29;20076;-68
2021/06/13 00:48:49;;;;;;;5.85;4.00;;;;;;;;;;4933596;29;20052;-69
2021/06/13 00:51:15;;;;;;;5.13;4.25;;;;;;;;;;4933586;29;20024;-67
2021/06/13 00:53:41;;;;;;;7.35;4.30;;;;;;;;;;4934677;29;20432;-67
2021/06/13 00:56:07;;;;;;;5.90;4.50;;;;;;;;;;4937205;29;20491;-66
2021/06/13 00:58:34;;;;;;;5.40;4.20;;;;;;;;;;4937375;29;20168;-68
2021/06/13 01:01:00;;;;;;;7.60;5.43;;;;;;;;;;4936150;29;20566;-67
2021/06/13 01:03:26;;;;;;;7.20;4.72;;;;;;;;;;4936397;29;20062;-66
2021/06/13 01:05:52;;;;;;;4.95;3.83;;;;;;;;;;4936758;29;20176;-66
2021/06/13 01:08:41;;;;;;;5.55;4.30;;;;;;;;;;4937055;29;20030;-67
2021/06/13 01:11:25;;;;;;;7.80;5.00;;;;;;;;;;4859518;29;20049;-67
2021/06/13 01:14:06;;;;;;;5.85;4.07;;;;;;;;;;4859327;29;20048;-68
2021/06/13 01:16:41;;;;;;;5.63;4.40;;;;;;;;;;4859678;29;20548;-67
2021/06/13 01:19:22;;;;;;;7.35;4.47;;;;;;;;;;4859434;29;20052;-67
2021/06/13 01:22:12;;;;;;;7.28;4.90;;;;;;;;;;4858617;29;20521;-67
2021/06/13 01:24:47;;;;;;;6.60;4.30;;;;;;;;;;4804372;29;20050;-71
2021/06/13 01:27:15;;;;;;;6.68;4.60;;;;;;;;;;4804303;29;20055;-67
2021/06/13 01:29:44;;;;;;;6.72;4.65;;;;;;;;;;4804405;29;20043;-67
2021/06/13 01:32:12;;;;;;;5.00;4.05;;;;;;;;;;4804272;29;20030;-67
2021/06/13 01:34:45;;;;;;;8.20;4.40;;;;;;;;;;4804104;29;20073;-67
2021/06/13 01:37:13;;;;;;;5.10;3.97;;;;;;;;;;4804019;29;20043;-67
2021/06/13 01:39:40;;;;;;;6.15;3.80;;;;;;;;;;4804137;29;20077;-69
2021/06/13 01:42:06;;;;;;;6.07;4.25;;;;;;;;;;4804118;29;20054;-69
2021/06/13 01:44:33;;;;;;;6.50;4.07;;;;;;;;;;4804025;29;20496;-67
2021/06/13 01:47:00;;;;;;;5.38;4.35;;;;;;;;;;4805686;29;20039;-68
2021/06/13 01:49:26;;;;;;;5.82;4.28;;;;;;;;;;4858684;29;20041;-66
2021/06/13 01:51:52;;;;;;;6.32;4.25;;;;;;;;;;4843036;29;20130;-66
2021/06/13 01:54:20;;;;;;;7.72;4.07;;;;;;;;;;4858640;29;20041;-67
2021/06/13 01:56:47;;;;;;;5.57;3.90;;;;;;;;;;4858483;29;20034;-68
2021/06/13 01:59:16;;;;;;;6.10;4.57;;;;;;;;;;4857733;29;20057;-71
2021/06/13 02:01:43;;;;;;;5.32;4.13;;;;;;;;;;4899955;29;20115;-67
2021/06/13 02:04:10;;;;;;;4.80;4.28;;;;;;;;;;4937168;29;20078;-67
2021/06/13 02:06:38;;;;;;;7.03;3.97;;;;;;;;;;4935406;29;20073;-71
2021/06/13 02:09:05;;;;;;;5.88;4.53;;;;;;;;;;4935816;29;20024;-67
2021/06/13 02:11:32;;;;;;;5.13;4.13;;;;;;;;;;4935792;29;20016;-67
2021/06/13 02:13:59;;;;;;;5.53;4.47;;;;;;;;;;4935604;29;20023;-67
2021/06/13 02:16:25;;;;;;;5.22;4.28;;;;;;;;;;4935757;29;20028;-71
2021/06/13 02:18:52;;;;;;;6.20;4.10;;;;;;;;;;4935585;29;20476;-67
2021/06/13 02:21:18;;;;;;;5.72;4.03;;;;;;;;;;4935652;29;20027;-70
2021/06/13 02:23:44;;;;;;;5.10;4.13;;;;;;;;;;4935259;29;20112;-68
2021/06/13 02:26:11;;;;;;;6.25;4.10;;;;;;;;;;4935689;29;20028;-69
2021/06/13 02:28:39;;;;;;;6.40;4.35;;;;;;;;;;4935429;29;20477;-70
2021/06/13 02:31:07;;;;;;;5.75;3.70;;;;;;;;;;4935470;29;20103;-69
2021/06/13 02:33:34;;;;;;;5.18;3.95;;;;;;;;;;4935380;29;20491;-70
2021/06/13 02:36:01;;;;;;;4.75;3.97;;;;;;;;;;4935256;29;20079;-67
2021/06/13 02:38:27;;;;;;;5.10;4.25;;;;;;;;;;4935206;29;20031;-68
2021/06/13 02:40:54;;;;;;;4.97;3.97;;;;;;;;;;4935375;29;20032;-68
2021/06/13 02:43:20;;;;;;;6.40;3.95;;;;;;;;;;4935072;29;20042;-69
2021/06/13 02:45:48;;;;;;;5.40;4.05;;;;;;;;;;4935150;29;20023;-68
2021/06/13 02:48:14;;;;;;;4.68;4.18;;;;;;;;;;4935172;29;20118;-71
2021/06/13 02:50:40;;;;;;;4.95;4.10;;;;;;;;;;4935185;29;20027;-68
2021/06/13 02:53:15;;;;;;;7.10;4.38;;;;;;;;;;4935122;29;20534;-67
2021/06/13 02:55:44;;;;;;;8.90;4.38;;;;;;;;;;4935301;29;20032;-66
2021/06/13 02:58:28;;;;;;;6.50;4.60;;;;;;;;;;4935073;29;20031;-67
2021/06/13 03:00:56;;;;;;;6.13;5.03;;;;;;;;;;4934885;29;20038;-71
2021/06/13 03:03:22;;;;;;;8.80;5.05;;;;;;;;;;4935097;29;20035;-68
2021/06/13 03:05:50;;;;;;;8.60;6.03;;;;;;;;;;4934561;29;20074;-68
2021/06/13 03:08:16;;;;;;;9.05;5.47;;;;;;;;;;4934537;29;20032;-72
2021/06/13 03:10:42;;;;;;;8.73;6.63;;;;;;;;;;4934828;29;20090;-67
2021/06/13 03:13:09;;;;;;;9.10;6.85;;;;;;;;;;4934642;29;20103;-68
2021/06/13 03:15:35;;;;;;;12.65;6.65;;;;;;;;;;4917522;29;20055;-71
2021/06/13 03:18:01;;;;;;;10.57;7.00;;;;;;;;;;4934634;29;20035;-68
2021/06/13 03:20:27;;;;;;;9.02;7.65;;;;;;;;;;4934703;29;20035;-68
2021/06/13 03:22:57;;;;;;;12.00;7.60;;;;;;;;;;4934515;29;20039;-69
2021/06/13 03:25:23;;;;;;;10.70;8.10;;;;;;;;;;4934651;29;20031;-66
2021/06/13 03:27:50;;;;;;;10.02;7.78;;;;;;;;;;4934513;29;20102;-67
2021/06/13 03:30:16;;;;;;;9.45;7.72;;;;;;;;;;4934454;29;20032;-68
2021/06/13 03:32:43;;;;;;;10.10;8.70;;;;;;;;;;4934543;29;20028;-68
2021/06/13 03:35:09;;;;;;;11.73;8.65;;;;;;;;;;4934415;29;20036;-68
2021/06/13 03:37:36;;;;;;;10.85;8.88;;;;;;;;;;4934453;29;20515;-67
2021/06/13 03:40:03;;;;;;;10.02;8.55;;;;;;;;;;4934409;29;20028;-70
2021/06/13 03:42:29;;;;;;;10.75;9.63;;;;;;;;;;4916646;29;20467;-67
2021/06/13 03:44:55;;;;;;;10.65;8.52;;;;;;;;;;4934216;29;20448;-70
2021/06/13 03:47:22;;;;;;;11.40;8.85;;;;;;;;;;4934088;29;20094;-66
2021/06/13 03:49:49;;;;;;;11.68;9.10;;;;;;;;;;4934155;29;20019;-64
2021/06/13 03:52:16;;;;;;;10.55;9.02;;;;;;;;;;4933981;29;20528;-72
2021/06/13 03:54:42;;;;;;;10.25;8.38;;;;;;;;;;4934219;29;20032;-69
2021/06/13 03:57:08;;;;;;;12.48;8.52;;;;;;;;;;4934203;29;20380;-70
2021/06/13 03:59:36;;;;;;;11.00;8.50;;;;;;;;;;4933936;29;20090;-71
2021/06/13 04:02:04;;;;;;;13.23;8.80;;;;;;;;;;4933833;29;20147;-68
2021/06/13 04:04:35;;;;;;;11.57;9.32;;;;;;;;;;4933853;29;20502;-69
2021/06/13 04:07:01;;;;;;;13.80;9.73;;;;;;;;;;4933909;29;20130;-67
2021/06/13 04:09:27;;;;;;;12.00;9.70;;;;;;;;;;4933599;29;20495;-68
2021/06/13 04:11:54;;;;;;;11.90;8.82;;;;;;;;;;4934005;29;20035;-71
2021/06/13 04:14:20;;;;;;;10.50;8.38;;;;;;;;;;4933527;29;20415;-68
2021/06/13 04:16:47;;;;;;;9.75;7.82;;;;;;;;;;4933730;29;20019;-67
2021/06/13 04:19:15;;;;;;;13.10;7.38;;;;;;;;;;4933771;29;20024;-65
2021/06/13 04:21:42;;;;;;;13.18;8.32;;;;;;;;;;4933287;29;20032;-65
2021/06/13 04:24:12;;;;;;;21.20;7.70;;;;;;;;;;4932986;29;20035;-70
2021/06/13 04:26:39;;;;;;;9.23;7.90;;;;;;;;;;4934023;29;20114;-70
2021/06/13 04:29:05;;;;;;;10.52;9.23;;;;;;;;;;4935779;29;20110;-70
2021/06/13 04:31:31;;;;;;;10.32;7.25;;;;;;;;;;4937670;29;20091;-70
2021/06/13 04:33:58;;;;;;;10.65;5.90;;;;;;;;;;4937541;29;20046;-70
2021/06/13 04:36:25;;;;;;;10.18;6.35;;;;;;;;;;4937439;29;20016;-70
2021/06/13 04:38:51;;;;;;;12.40;7.38;;;;;;;;;;4937266;29;20027;-71
2021/06/13 04:41:17;;;;;;;12.00;8.63;;;;;;;;;;4937529;29;20032;-70
2021/06/13 04:43:44;;;;;;;12.43;9.40;;;;;;;;;;4936581;29;20507;-70
2021/06/13 04:46:10;;;;;;;13.32;8.57;;;;;;;;;;4936944;29;20039;-69
2021/06/13 04:48:37;;;;;;;9.68;7.03;;;;;;;;;;4937089;29;20343;-70
2021/06/13 04:51:04;;;;;;;11.40;8.55;;;;;;;;;;4936776;29;20476;-70
2021/06/13 04:53:32;;;;;;;9.05;6.05;;;;;;;;;;4936769;29;20031;-70
2021/06/13 04:56:00;;;;;;;11.02;6.88;;;;;;;;;;4937306;29;20031;-70
2021/06/13 04:58:26;;;;;;;8.55;6.80;;;;;;;;;;4936657;29;20028;-69
2021/06/13 05:00:53;;;;;;;10.57;9.23;;;;;;;;;;4936888;29;20031;-70
2021/06/13 05:03:19;;;;;;;10.05;7.72;;;;;;;;;;4936678;29;20043;-70
2021/06/13 05:05:45;;;;;;;10.77;8.60;;;;;;;;;;4936463;29;20679;-70
2021/06/13 05:08:12;;;;;;;11.80;8.48;;;;;;;;;;4936970;29;20328;-70
2021/06/13 05:10:38;;;;;;;8.55;6.43;;;;;;;;;;4936740;29;20035;-70
2021/06/13 05:13:14;;;;;;;11.25;7.88;;;;;;;;;;4936813;29;20032;-70
2021/06/13 05:15:40;;;;;;;12.00;8.40;;;;;;;;;;4936602;29;20054;-70
2021/06/13 05:18:06;;;;;;;12.55;8.93;;;;;;;;;;4936814;29;20091;-69
2021/06/13 05:20:32;;;;;;;8.75;7.85;;;;;;;;;;4936101;29;20107;-70
2021/06/13 05:22:59;;;;;;;9.88;7.40;;;;;;;;;;4936085;29;20043;-70
2021/06/13 05:25:27;;;;;;;8.88;5.95;;;;;;;;;;4936303;29;20022;-70
2021/06/13 05:27:54;;;;;;;8.98;7.35;;;;;;;;;;4936568;29;20110;-69
2021/06/13 05:30:20;;;;;;;10.05;7.57;;;;;;;;;;4936381;29;20384;-69
2021/06/13 05:32:46;;;;;;;9.55;7.40;;;;;;;;;;4936282;29;20079;-69
2021/06/13 05:35:12;;;;;;;9.45;7.00;;;;;;;;;;4936278;29;20071;-69
2021/06/13 05:37:38;;;;;;;7.80;7.00;;;;;;;;;;4936042;29;20436;-69
2021/06/13 05:40:08;;;;;;;9.95;8.10;;;;;;;;;;4936014;29;20471;-69
2021/06/13 05:42:34;;;;;;;9.10;7.47;;;;;;;;;;4936018;29;20464;-69
2021/06/13 05:45:00;;;;;;;9.45;7.13;;;;;;;;;;4935963;29;20091;-69
2021/06/13 05:47:26;;;;;;;6.55;5.70;;;;;;;;;;4935791;29;20023;-69
2021/06/13 05:49:52;;;;;;;7.10;6.25;;;;;;;;;;4935926;29;20024;-70
2021/06/13 05:52:19;;;;;;;7.55;6.45;;;;;;;;;;4935907;29;20051;-69
2021/06/13 05:54:45;;;;;;;10.13;7.97;;;;;;;;;;4935838;29;20059;-69
2021/06/13 05:57:11;;;;;;;8.07;5.57;;;;;;;;;;4936082;29;20064;-69
2021/06/13 05:59:37;;;;;;;6.28;5.10;;;;;;;;;;4935762;29;20035;-69
2021/06/13 06:02:03;;;;;;;10.48;7.70;;;;;;;;;;4935959;29;20046;-70
2021/06/13 06:04:29;;;;;;;10.98;7.65;;;;;;;;;;4935488;29;20043;-68
2021/06/13 06:06:55;;;;;;;7.13;5.30;;;;;;;;;;4935666;29;20047;-69
2021/06/13 06:09:21;;;;;;;8.55;6.88;;;;;;;;;;4935848;29;20040;-70
2021/06/13 06:11:47;;;;;;;9.20;7.60;;;;;;;;;;4935538;29;20102;-69
2021/06/13 06:14:13;;;;;;;9.95;6.72;;;;;;;;;;4935493;29;20031;-69
2021/06/13 06:16:39;;;;;;;5.40;4.90;;;;;;;;;;4935569;29;20032;-69
2021/06/13 06:19:05;;;;;;;9.13;6.32;;;;;;;;;;4935695;29;20403;-70
2021/06/13 06:21:31;;;;;;;7.35;6.20;;;;;;;;;;4935082;29;20055;-69
2021/06/13 06:23:57;;;;;;;9.45;7.45;;;;;;;;;;4935433;29;20031;-69
2021/06/13 06:26:23;;;;;;;9.55;8.27;;;;;;;;;;4935414;29;20067;-69
2021/06/13 06:28:49;;;;;;;9.27;7.72;;;;;;;;;;4935158;29;20038;-69
2021/06/13 06:31:16;;;;;;;8.05;5.55;;;;;;;;;;4935403;29;20063;-69
2021/06/13 06:33:42;;;;;;;6.70;4.95;;;;;;;;;;4935239;29;20028;-69
2021/06/13 06:36:08;;;;;;;8.32;6.15;;;;;;;;;;4935242;29;20032;-69
2021/06/13 06:38:34;;;;;;;8.05;6.35;;;;;;;;;;4934963;29;20027;-69
2021/06/13 06:41:00;;;;;;;10.50;7.03;;;;;;;;;;4935302;29;20032;-69
2021/06/13 06:43:26;;;;;;;7.47;6.32;;;;;;;;;;4934777;29;20267;-69
2021/06/13 06:45:52;;;;;;;9.63;7.00;;;;;;;;;;4935134;29;20155;-69
2021/06/13 06:48:18;;;;;;;10.40;6.97;;;;;;;;;;4934837;29;20028;-69
2021/06/13 06:50:44;;;;;;;8.57;6.53;;;;;;;;;;4934546;29;20032;-69
2021/06/13 06:53:11;;;;;;;8.55;5.70;;;;;;;;;;4934833;29;20083;-68
2021/06/13 06:55:37;;;;;;;7.68;5.60;;;;;;;;;;4934657;29;20377;-69
2021/06/13 06:58:03;;;;;;;6.50;5.80;;;;;;;;;;4934946;29;20047;-69
2021/06/13 07:00:29;;;;;;;10.07;6.22;;;;;;;;;;4934527;29;20032;-69
2021/06/13 07:02:55;;;;;;;7.97;5.88;;;;;;;;;;4934530;29;20042;-69
2021/06/13 07:05:21;;;;;;;9.10;6.20;;;;;;;;;;4934433;29;20046;-70
2021/06/13 07:07:47;;;;;;;8.25;6.03;;;;;;;;;;4934710;29;20395;-69
2021/06/13 07:10:14;;;;;;;8.27;6.65;;;;;;;;;;4916513;29;20480;-70
2021/06/13 07:12:40;;;;;;;9.00;6.80;;;;;;;;;;4933943;29;20039;-70
2021/06/13 07:15:08;;;;;;;7.25;4.60;;;;;;;;;;4934515;29;20464;-69
2021/06/13 07:17:35;;;;;;;6.65;5.00;;;;;;;;;;4934265;29;20059;-69
2021/06/13 07:20:02;;;;;;;8.23;5.07;;;;;;;;;;4934216;29;20087;-70
2021/06/13 07:22:28;;;;;;;8.02;5.47;;;;;;;;;;4933119;29;20153;-70
2021/06/13 07:24:56;;;;;;;9.23;4.95;;;;;;;;;;4933572;29;20058;-69
2021/06/13 07:27:22;;;;;;;8.68;5.10;;;;;;;;;;4933786;29;20055;-69
2021/06/13 07:29:49;;;;;;;8.02;5.07;;;;;;;;;;4932659;29;20051;-69
2021/06/13 07:32:16;;;;;;;7.75;5.40;;;;;;;;;;4933832;29;20099;-69
2021/06/13 07:34:42;;;;;;;7.22;5.10;;;;;;;;;;4933879;29;20067;-69
2021/06/13 07:37:09;;;;;;;8.60;5.35;;;;;;;;;;4934174;29;20110;-69
2021/06/13 07:39:35;;;;;;;8.32;5.30;;;;;;;;;;4933884;29;20028;-69
2021/06/13 07:42:02;;;;;;;9.02;5.07;;;;;;;;;;4934146;29;20039;-70
2021/06/13 07:44:28;;;;;;;8.00;4.97;;;;;;;;;;4934021;29;20660;-70
2021/06/13 07:46:55;;;;;;;9.85;6.50;;;;;;;;;;4934228;29;20020;-69
2021/06/13 07:49:21;;;;;;;7.38;4.53;;;;;;;;;;4933981;29;20039;-70
2021/06/13 07:51:47;;;;;;;6.68;4.78;;;;;;;;;;4933662;29;20020;-70
2021/06/13 07:54:14;;;;;;;8.18;6.20;;;;;;;;;;4933660;29;20102;-70
2021/06/13 07:56:40;;;;;;;7.50;5.38;;;;;;;;;;4933964;29;20070;-70
2021/06/13 07:59:06;;;;;;;8.20;5.03;;;;;;;;;;4933996;29;20139;-70
2021/06/13 08:01:32;;;;;;;7.10;5.70;;;;;;;;;;4933664;29;20107;-70
2021/06/13 08:03:58;;;;;;;8.30;5.55;;;;;;;;;;4932748;29;20061;-72
2021/06/13 08:06:24;;;;;;;9.00;5.15;;;;;;;;;;4933129;29;20072;-71
2021/06/13 08:08:51;;;;;;;6.05;4.55;;;;;;;;;;4933601;29;20042;-71
2021/06/13 08:11:17;;;;;;;6.18;3.97;;;;;;;;;;4933582;29;20020;-71
2021/06/13 08:13:43;;;;;;;6.68;4.22;;;;;;;;;;4933487;29;20024;-70
2021/06/13 08:16:09;;;;;;;12.93;4.45;;;;;;;;;;4933758;29;20032;-70
2021/06/13 08:18:35;;;;;;;7.22;3.90;;;;;;;;;;4933607;29;20480;-70
2021/06/13 08:21:01;;;;;;;7.55;3.63;;;;;;;;;;4933617;29;20089;-70
2021/06/13 08:23:30;;;;;;;5.93;3.83;;;;;;;;;;4933250;29;20036;-70
2021/06/13 08:25:56;;;;;;;4.75;3.65;;;;;;;;;;4933274;29;20079;-69
2021/06/13 08:28:22;;;;;;;5.05;3.70;;;;;;;;;;4933651;29;20028;-69
2021/06/13 08:30:49;;;;;;;4.95;3.28;;;;;;;;;;4933294;29;20031;-69
2021/06/13 08:33:15;;;;;;;6.05;3.25;;;;;;;;;;4933336;29;20035;-70
2021/06/13 08:35:41;;;;;;;5.80;3.13;;;;;;;;;;4933315;29;20040;-70
2021/06/13 08:38:07;;;;;;;6.55;3.13;;;;;;;;;;4933826;29;20023;-70
2021/06/13 08:40:33;;;;;;;5.03;3.05;;;;;;;;;;4916004;29;20476;-69
2021/06/13 08:43:01;;;;;;;4.93;3.10;;;;;;;;;;4933421;29;20530;-69
2021/06/13 08:45:28;;;;;;;7.03;3.10;;;;;;;;;;4933066;29;20023;-70
2021/06/13 08:47:55;;;;;;;7.28;3.10;;;;;;;;;;4933502;29;20032;-70
2021/06/13 08:50:22;;;;;;;4.82;2.60;;;;;;;;;;4933172;29;20020;-70
2021/06/13 08:52:48;;;;;;;5.53;2.95;;;;;;;;;;4932924;29;20035;-71
2021/06/13 08:55:15;;;;;;;4.28;2.75;;;;;;;;;;4932887;29;20019;-70
2021/06/13 08:57:41;;;;;;;4.22;2.60;;;;;;;;;;4933419;29;20023;-69
2021/06/13 09:00:11;;;;;;;8.63;2.78;;;;;;;;;;4933082;29;20539;-69
2021/06/13 09:02:38;;;;;;;3.80;2.60;;;;;;;;;;4932832;29;20044;-70
2021/06/13 09:05:04;;;;;;;5.75;2.28;;;;;;;;;;4932777;29;20480;-69
2021/06/13 09:07:30;;;;;;;5.57;2.83;;;;;;;;;;4933039;29;20833;-69
2021/06/13 09:10:06;;;;;;;7.43;2.33;;;;;;;;;;4933245;29;20107;-71
2021/06/13 09:12:36;;;;;;;5.63;2.20;;;;;;;;;;4932980;29;20059;-70
2021/06/13 09:15:02;;;;;;;4.18;2.10;;;;;;;;;;4917820;29;20083;-70
2021/06/13 09:17:29;;;;;;;5.60;2.45;;;;;;;;;;4936525;29;20433;-70
2021/06/13 09:20:05;;;;;;;4.38;2.38;;;;;;;;;;4936745;29;20083;-70
2021/06/13 09:22:31;;;;;;;3.83;2.40;;;;;;;;;;4936133;29;20078;-70
2021/06/13 09:25:08;;;;;;;5.72;2.30;;;;;;;;;;4936261;29;20110;-71
2021/06/13 09:27:34;;;;;;;5.93;2.67;;;;;;;;;;4935918;29;20458;-71
2021/06/13 09:30:00;;;;;;;4.07;2.20;;;;;;;;;;4935792;29;20507;-71
2021/06/13 09:32:27;;;;;;;4.03;2.20;;;;;;;;;;4936020;29;20047;-71
2021/06/13 09:35:11;;;;;;;4.60;2.50;;;;;;;;;;4935846;29;20396;-71
2021/06/13 09:37:57;;;;;;;5.15;2.40;;;;;;;;;;4936295;29;20032;-70
2021/06/13 09:40:26;;;;;;;5.53;2.20;;;;;;;;;;4935992;29;20441;-71
2021/06/13 09:42:53;;;;;;;5.95;2.20;;;;;;;;;;4935739;29;20050;-71
2021/06/13 09:45:19;;;;;;;5.28;2.60;;;;;;;;;;4936089;29;20405;-71
2021/06/13 09:47:46;;;;;;;6.57;2.40;;;;;;;;;;4935878;29;20107;-71
2021/06/13 09:50:12;;;;;;;5.82;2.10;;;;;;;;;;4935058;29;20036;-70
2021/06/13 09:52:38;;;;;;;5.00;2.25;;;;;;;;;;4935107;29;20096;-70
2021/06/13 09:55:11;;;;;;;3.65;1.77;;;;;;;;;;4935203;29;20491;-70
2021/06/13 09:57:57;;;;;;;6.82;2.00;;;;;;;;;;4935755;29;20381;-70
2021/06/13 10:00:24;;;;;;;3.38;2.00;;;;;;;;;;4935639;29;20035;-70
2021/06/13 10:02:50;;;;;;;6.60;1.88;;;;;;;;;;4935475;29;20039;-70
2021/06/13 10:05:16;;;;;;;6.00;1.95;;;;;;;;;;4934941;29;20050;-70
2021/06/13 10:07:42;;;;;;;3.42;1.73;;;;;;;;;;4935343;29;20028;-70
2021/06/13 10:10:09;;;;;;;5.47;2.00;;;;;;;;;;4935393;29;20126;-71
2021/06/13 10:12:52;;;;;;;8.65;2.22;;;;;;;;;;4935464;29;20523;-70
2021/06/13 10:15:18;;;;;;;5.68;2.00;;;;;;;;;;4935808;29;20038;-70
2021/06/13 10:17:44;;;;;;;5.07;1.92;;;;;;;;;;4935531;29;20492;-71
2021/06/13 10:20:23;;;;;;;4.20;1.63;;;;;;;;;;4935200;29;20118;-69
2021/06/13 10:22:49;;;;;;;2.30;1.30;;;;;;;;;;4935224;29;20107;-71
2021/06/13 10:25:15;;;;;;;4.57;1.75;;;;;;;;;;4918198;29;20034;-70
2021/06/13 10:27:42;;;;;;;5.05;1.42;;;;;;;;;;4934783;29;20066;-71
2021/06/13 10:30:08;;;;;;;4.65;1.60;;;;;;;;;;4935150;29;20087;-71
2021/06/13 10:32:34;;;;;;;6.45;1.80;;;;;;;;;;4934954;29;20099;-73
2021/06/13 10:35:05;;;;;;;3.08;1.40;;;;;;;;;;4934843;29;20421;-72
2021/06/13 10:37:31;;;;;;;2.78;1.73;;;;;;;;;;4935003;29;20028;-73
2021/06/13 10:39:58;;;;;;;2.95;1.52;;;;;;;;;;4935179;29;20031;-75
2021/06/13 10:42:25;;;;;;;4.20;1.65;;;;;;;;;;4934857;29;20554;-73
2021/06/13 10:44:51;;;;;;;2.80;1.33;;;;;;;;;;4934972;29;20024;-75
2021/06/13 10:47:18;;;;;;;6.50;1.50;;;;;;;;;;4935112;29;20539;-75
2021/06/13 10:49:46;;;;;;;3.33;1.60;;;;;;;;;;4935168;29;20476;-74
2021/06/13 10:52:20;;;;;;;4.82;1.98;;;;;;;;;;4934533;29;20033;-74
2021/06/13 10:55:12;;;;;;;7.70;1.42;;;;;;;;;;4934587;29;20036;-74
2021/06/13 10:57:40;;;;;;;;;;;;;;;;;;4857756;29;20053;-70
2021/06/13 11:00:12;;;;;;;9.73;2.05;;;;;;;;;;4857533;29;19912;-75
2021/06/13 11:02:38;;;;;;;;;;;;;;;;;;4857478;29;20056;-73
2021/06/13 11:05:05;;;;;;;3.55;1.70;;;;;;;;;;4857474;29;19924;-73
2021/06/13 11:07:41;;;;;;;5.20;1.48;;;;;;;;;;4857376;29;20487;-74
2021/06/13 11:10:08;;;;;;;6.43;1.45;;;;;;;;;;4857278;29;20466;-73
2021/06/13 11:12:39;;;;;;;3.88;1.13;;;;;;;;;;4857251;29;20036;-72
2021/06/13 11:15:05;;;;;;;8.30;1.80;;;;;;;;;;4857230;29;20034;-72
2021/06/13 11:17:49;;;;;;;8.35;1.70;;;;;;;;;;4857370;29;20109;-71
2021/06/13 11:20:28;;;;;;;5.03;1.50;;;;;;;;;;4857175;29;20727;-74
2021/06/13 11:22:54;;;;;;;4.63;1.50;;;;;;;;;;4856640;29;20135;-74
2021/06/13 11:25:24;;;;;;;5.90;1.60;;;;;;;;;;4857208;29;20118;-73
2021/06/13 11:28:08;;;;;;;5.43;1.60;;;;;;;;;;4856567;29;20042;-73
2021/06/13 11:30:39;;;;;;;6.20;2.00;;;;;;;;;;4856751;29;20053;-73
2021/06/13 11:33:05;;;;;;;4.18;1.52;;;;;;;;;;4856048;29;20037;-73
2021/06/13 11:35:34;;;;;;;5.28;1.42;;;;;;;;;;4929765;29;20533;-74
2021/06/13 11:38:26;;;;;;;5.13;1.20;;;;;;;;;;4933553;29;20028;-71
2021/06/13 11:41:02;;;;;;;5.25;1.63;;;;;;;;;;4929644;29;20373;-74
2021/06/13 11:43:33;;;;;;;2.80;1.30;;;;;;;;;;4933443;29;20130;-74
2021/06/13 11:46:05;;;;;;;4.22;1.50;;;;;;;;;;4933238;29;20122;-74
2021/06/13 11:48:33;;;;;;;3.63;1.55;;;;;;;;;;4933550;29;20023;-73
2021/06/13 11:51:02;;;;;;;5.15;1.17;;;;;;;;;;4933694;29;20023;-74
2021/06/13 11:53:47;;;;;;;5.70;1.67;;;;;;;;;;4933478;29;20027;-74
2021/06/13 11:56:36;;;;;;;4.78;1.23;;;;;;;;;;4933711;29;20101;-70
2021/06/13 11:59:05;;;;;;;3.88;1.65;;;;;;;;;;4933679;29;20035;-71
2021/06/13 12:01:33;;;;;;;6.05;2.00;;;;;;;;;;4933612;29;20027;-74
2021/06/13 12:04:00;;;;;;;3.00;1.13;;;;;;;;;;4933332;29;20107;-74
2021/06/13 12:06:26;;;;;;;3.03;1.17;;;;;;;;;;4933272;29;20051;-71
2021/06/13 12:08:53;;;;;;;2.42;1.10;;;;;;;;;;4933872;29;20028;-71
2021/06/13 12:11:29;;;;;;;4.28;1.90;;;;;;;;;;4933540;29;20440;-74
2021/06/13 12:13:55;;;;;;;14.63;2.25;;;;;;;;;;4933471;29;20068;-72
2021/06/13 12:16:21;;;;;;;5.50;2.03;;;;;;;;;;4933849;29;20024;-74
2021/06/13 12:19:01;;;;;;;8.30;1.75;;;;;;;;;;4933708;29;20031;-74
2021/06/13 12:21:28;;;;;;;4.93;1.38;;;;;;;;;;4933648;29;20110;-74
2021/06/13 12:24:05;;;;;;;3.38;1.33;;;;;;;;;;4916180;29;20040;-74
2021/06/13 12:29:26;;;;;;;3.55;1.20;;;;;;;;;;4933814;29;20134;-70
2021/06/13 12:31:53;;;;;;;6.63;1.52;;;;;;;;;;4933125;29;20023;-72
2021/06/13 12:34:23;;;;;;;3.25;1.58;;;;;;;;;;4933004;29;20842;-73
2021/06/13 12:36:53;;;;;;;4.63;1.80;;;;;;;;;;4933064;29;20515;-73
2021/06/13 12:39:26;;;;;;;4.70;1.52;;;;;;;;;;4933315;29;20087;-74
2021/06/13 12:41:52;;;;;;;6.18;1.45;;;;;;;;;;4932891;29;20417;-70
2021/06/13 12:44:19;;;;;;;7.00;1.50;;;;;;;;;;4933238;29;20188;-75
2021/06/13 12:46:46;;;;;;;4.00;1.27;;;;;;;;;;4933246;29;20480;-74
2021/06/13 12:49:12;;;;;;;4.18;1.50;;;;;;;;;;4933775;29;20495;-77
2021/06/13 12:51:41;;;;;;;3.53;1.35;;;;;;;;;;4936886;29;20054;-79
2021/06/13 12:54:17;;;;;;;5.15;1.33;;;;;;;;;;4936347;29;20090;-78
2021/06/13 12:56:45;;;;;;;5.03;1.30;;;;;;;;;;4936963;29;20031;-74
2021/06/13 12:59:12;;;;;;;2.83;1.13;;;;;;;;;;4936554;29;20027;-72
2021/06/13 13:01:44;;;;;;;8.65;1.80;;;;;;;;;;4936892;29;20031;-73
2021/06/13 13:04:10;;;;;;;8.20;2.08;;;;;;;;;;4936572;29;20048;-72
2021/06/13 13:06:50;;;;;;;3.10;1.20;;;;;;;;;;4936886;29;20055;-73
2021/06/13 13:09:16;;;;;;;3.58;1.20;;;;;;;;;;4936570;29;20031;-75
2021/06/13 13:11:43;;;;;;;6.90;1.55;;;;;;;;;;4919572;29;20122;-76
2021/06/13 13:14:10;;;;;;;4.07;1.98;;;;;;;;;;4936070;29;20116;-76
2021/06/13 13:16:37;;;;;;;6.05;1.55;;;;;;;;;;4936743;29;20028;-76
2021/06/13 13:19:06;;;;;;;7.35;1.50;;;;;;;;;;4936129;29;20027;-76
2021/06/13 13:21:33;;;;;;;4.15;1.30;;;;;;;;;;4936386;29;20024;-79
2021/06/13 13:24:00;;;;;;;7.72;1.65;;;;;;;;;;4935846;29;20032;-77
2021/06/13 13:26:26;;;;;;;6.68;1.40;;;;;;;;;;4936142;29;20028;-77
2021/06/13 13:28:54;;;;;;;4.03;1.30;;;;;;;;;;4934861;29;20031;-77
2021/06/13 13:31:21;;;;;;;4.32;1.63;;;;;;;;;;4936057;29;20059;-77
2021/06/13 13:33:56;;;;;;;6.60;1.40;;;;;;;;;;4935930;29;20095;-76
2021/06/13 13:36:28;;;;;;;2.88;1.38;;;;;;;;;;4936236;29;20028;-78
2021/06/13 13:38:55;;;;;;;;;;;;;;;;;;4936399;29;20034;-75
2021/06/13 13:41:22;;;;;;;4.68;1.58;;;;;;;;;;4936034;29;19954;-81
2021/06/13 13:43:57;;;;;;;3.88;1.33;;;;;;;;;;4935862;29;20547;-82
2021/06/13 13:46:26;;;;;;;4.22;1.40;;;;;;;;;;4936179;29;20451;-84
2021/06/13 13:48:57;;;;;;;4.90;1.20;;;;;;;;;;4935993;29;20030;-83
2021/06/13 13:51:23;;;;;;;4.78;1.50;;;;;;;;;;4936071;29;20028;-83
2021/06/13 13:53:52;;;;;;;3.13;1.73;;;;;;;;;;4935568;29;20083;-83
2021/06/13 13:56:20;;;;;;;5.97;1.52;;;;;;;;;;4935747;29;20028;-82
2021/06/13 13:58:48;;;;;;;5.15;1.88;;;;;;;;;;4948195;29;20082;-81
2021/06/13 14:01:14;;;;;;;4.45;1.40;;;;;;;;;;4945527;29;20023;-82
2021/06/13 14:03:40;;;;;;;3.70;1.40;;;;;;;;;;4948087;29;20496;-83
2021/06/13 14:06:06;;;;;;;4.45;1.52;;;;;;;;;;4942813;29;20063;-83
2021/06/13 14:08:40;;;;;;;7.60;2.10;;;;;;;;;;4937232;29;20517;-79
2021/06/13 14:11:06;;;;;;;4.97;1.67;;;;;;;;;;4937281;29;20066;-85
2021/06/13 14:13:32;;;;;;;5.15;1.58;;;;;;;;;;4936709;29;20028;-84
2021/06/13 14:15:58;;;;;;;5.95;1.58;;;;;;;;;;4935923;29;20030;-83
2021/06/13 14:18:24;;;;;;;4.45;1.58;;;;;;;;;;4936385;29;20066;-83
2021/06/13 14:20:50;;;;;;;5.85;1.65;;;;;;;;;;4936366;29;20028;-81
2021/06/13 14:23:16;;;;;;;4.88;1.40;;;;;;;;;;4935921;29;20036;-79
2021/06/13 14:25:43;;;;;;;4.20;1.25;;;;;;;;;;4936034;29;20027;-83
2021/06/13 14:28:09;;;;;;;4.20;1.40;;;;;;;;;;4936600;29;20054;-82
2021/06/13 14:30:35;;;;;;;3.65;1.40;;;;;;;;;;4918849;29;20120;-85
2021/06/13 14:33:02;;;;;;;4.88;1.55;;;;;;;;;;4935114;29;20028;-84
2021/06/13 14:35:28;;;;;;;3.17;1.00;;;;;;;;;;4935126;29;20047;-84
2021/06/13 14:37:54;;;;;;;4.88;1.17;;;;;;;;;;4935360;29;20094;-85
2021/06/13 14:40:20;;;;;;;3.92;1.40;;;;;;;;;;4935119;29;20034;-84
2021/06/13 14:42:46;;;;;;;3.42;1.60;;;;;;;;;;4935066;29;20070;-79
2021/06/13 14:45:14;;;;;;;5.60;1.60;;;;;;;;;;4934845;29;20475;-82
2021/06/13 14:47:40;;;;;;;2.25;1.30;;;;;;;;;;4934837;29;20039;-83
2021/06/13 14:50:07;;;;;;;5.55;1.45;;;;;;;;;;4935023;29;20555;-79